Time;durP1;ratioP1;P1;durP2;ratioP2;P2;SDS_P1;SDS_P2;PMS_P1;PMS_P2;Temp;Humidity;BMP_temperature;BMP_pressure;BME280_temperature;BME280_humidity;BME280_pressure;Samples;Min_cycle;Max_cycle;Signal;HPM_P1;HPM_P2
2022/12/13 00:02:00;;;;;;;40.55;17.85;;;-1.80;65.90;;;-7.39;100.00;94535.59;4987613;28;20031;-45
2022/12/13 00:04:26;;;;;;;41.40;19.25;;;-1.80;65.20;;;-7.35;100.00;94541.19;4994464;28;20439;-46
2022/12/13 00:07:07;;;;;;;42.70;18.88;;;-1.80;65.20;;;-7.30;100.00;94544.84;4980807;28;20030;-44
2022/12/13 00:09:33;;;;;;;36.58;17.55;;;-1.80;65.40;;;-7.26;100.00;94538.34;4982887;28;20078;-44
2022/12/13 00:12:02;;;;;;;42.28;18.52;;;-1.80;65.40;;;-7.24;100.00;94528.63;5007817;28;20051;-46
2022/12/13 00:14:31;;;;;;;41.20;18.88;;;-1.70;65.60;;;-7.24;100.00;94538.13;5010663;28;20041;-44
2022/12/13 00:17:00;;;;;;;35.30;17.55;;;-1.70;65.50;;;-7.20;100.00;94541.19;4977861;28;20116;-45
2022/12/13 00:19:29;;;;;;;37.10;17.63;;;-1.70;65.60;;;-7.17;100.00;94523.50;4996303;28;20414;-45
2022/12/13 00:21:58;;;;;;;34.42;17.27;;;-1.60;65.60;;;-7.16;100.00;94519.94;5008718;28;20032;-45
2022/12/13 00:24:26;;;;;;;34.42;16.25;;;-1.60;65.60;;;-7.15;100.00;94518.94;5002033;28;20110;-46
2022/12/13 00:27:01;;;;;;;39.03;18.17;;;-1.60;65.60;;;-7.13;100.00;94527.34;5010089;28;20021;-46
2022/12/13 00:29:27;;;;;;;33.83;16.85;;;-1.60;65.50;;;-7.20;100.00;94529.06;5009806;28;20392;-46
2022/12/13 00:31:53;;;;;;;35.85;17.60;;;-1.60;65.40;;;-7.24;100.00;94530.38;5009192;28;20029;-46
2022/12/13 00:34:19;;;;;;;32.00;16.02;;;-1.60;65.40;;;-7.29;100.00;94528.34;5011540;28;20471;-44
2022/12/13 00:36:54;;;;;;;34.10;16.75;;;-1.60;66.00;;;-7.32;100.00;94527.91;4970686;28;20029;-44
2022/12/13 00:39:19;;;;;;;34.33;16.15;;;-1.60;65.30;;;-7.32;100.00;94518.34;4993698;28;20029;-46
2022/12/13 00:41:52;;;;;;;31.90;16.92;;;-1.60;65.20;;;-7.34;100.00;94514.34;4979487;28;20029;-44
2022/12/13 00:44:18;;;;;;;30.10;14.88;;;-1.60;65.20;;;-7.34;100.00;94512.53;4984606;28;20041;-44
2022/12/13 00:46:50;;;;;;;34.60;16.13;;;-1.70;65.20;;;-7.34;100.00;94498.81;4990447;28;20025;-44
2022/12/13 00:49:22;;;;;;;30.20;15.40;;;-1.70;65.20;;;-7.35;100.00;94504.97;4977185;28;20053;-44
2022/12/13 00:51:52;;;;;;;33.38;16.48;;;-1.70;65.20;;;-7.41;100.00;94513.47;4991564;28;20026;-47
2022/12/13 00:54:21;;;;;;;31.15;15.65;;;-1.70;65.20;;;-7.41;100.00;94508.28;4978072;28;20082;-45
2022/12/13 00:56:47;;;;;;;33.60;16.37;;;-1.70;65.30;;;-7.42;100.00;94499.72;4991295;28;20366;-45
2022/12/13 00:59:14;;;;;;;28.92;14.90;;;-1.70;65.20;;;-7.48;100.00;94500.44;4985490;28;20492;-44
2022/12/13 01:01:43;;;;;;;31.52;15.23;;;-1.80;65.10;;;-7.55;100.00;94497.78;4981597;28;20417;-44
2022/12/13 01:04:10;;;;;;;28.95;14.68;;;-1.80;65.10;;;-7.60;100.00;94500.09;4989379;28;20021;-46
2022/12/13 01:06:45;;;;;;;28.70;15.30;;;-1.80;65.10;;;-7.59;100.00;94506.06;4978107;28;20481;-47
2022/12/13 01:09:32;;;;;;;31.90;16.00;;;-1.90;65.10;;;-7.57;100.00;94501.50;4988775;28;20034;-47
2022/12/13 01:12:05;;;;;;;29.75;14.27;;;-1.90;65.20;;;-7.51;100.00;94503.38;4984371;28;20034;-44
2022/12/13 01:14:37;;;;;;;30.92;16.13;;;-1.90;65.20;;;-7.47;100.00;94507.22;4991536;28;20033;-45
2022/12/13 01:17:05;;;;;;;30.52;15.50;;;-1.90;65.30;;;-7.45;100.00;94493.13;4991898;28;20675;-44
2022/12/13 01:19:32;;;;;;;27.58;13.70;;;-1.90;65.50;;;-7.41;100.00;94503.09;4975030;28;20064;-46
2022/12/13 01:22:06;;;;;;;32.00;15.82;;;-1.80;65.50;;;-7.38;100.00;94497.56;4987385;28;20484;-48
2022/12/13 01:24:33;;;;;;;26.67;14.73;;;-1.80;65.50;;;-7.39;99.60;94504.53;4980997;28;20120;-45
2022/12/13 01:26:59;;;;;;;27.15;14.10;;;-1.80;65.40;;;-7.42;99.53;94504.09;4967119;28;20539;-44
2022/12/13 01:29:27;;;;;;;29.95;15.13;;;-1.80;65.40;;;-7.41;99.52;94503.09;4982150;28;20064;-47
2022/12/13 01:31:54;;;;;;;27.92;14.02;;;-1.80;65.30;;;-7.40;99.52;94496.94;4990032;28;20473;-48
2022/12/13 01:34:23;;;;;;;28.15;14.80;;;-1.80;65.30;;;-7.45;99.77;94487.16;4989725;28;20029;-47
2022/12/13 01:36:49;;;;;;;35.10;15.70;;;-1.80;65.30;;;-7.36;99.73;94491.25;4982859;28;20100;-44
2022/12/13 01:39:19;;;;;;;26.98;13.82;;;-1.70;65.30;;;-7.34;99.31;94491.03;4989439;28;20096;-46
2022/12/13 01:41:50;;;;;;;32.17;15.65;;;-1.70;65.30;;;-7.38;99.25;94485.44;4973927;28;20023;-45
2022/12/13 01:45:26;;;;;;;27.40;14.73;;;-1.70;65.30;;;-7.39;98.91;94480.44;4990284;28;20041;-44
2022/12/13 01:48:07;;;;;;;26.83;14.05;;;-1.70;65.30;;;-7.41;98.98;94477.22;5003838;28;20029;-45
2022/12/13 01:50:47;;;;;;;29.67;14.13;;;-1.70;65.20;;;-7.43;98.40;94471.44;4986212;28;20069;-46
2022/12/13 01:53:27;;;;;;;27.58;14.90;;;-1.80;65.10;;;-7.47;98.04;94479.53;4997142;28;20029;-45
2022/12/13 01:56:07;;;;;;;27.77;13.98;;;-1.80;65.10;;;-7.49;98.01;94485.88;5005635;28;20056;-44
2022/12/13 01:58:37;;;;;;;28.67;13.82;;;-1.80;65.00;;;-7.54;98.10;94483.84;4991315;28;20029;-49
2022/12/13 02:01:06;;;;;;;28.55;14.05;;;-1.80;65.00;;;-7.51;98.56;94477.50;4989270;28;20042;-44
2022/12/13 02:03:34;;;;;;;34.60;14.35;;;-1.80;65.00;;;-7.51;98.73;94477.50;4986532;28;20033;-48
2022/12/13 02:06:11;;;;;;;28.83;13.68;;;-1.80;65.00;;;-7.52;98.85;94483.66;4988903;28;20018;-46
2022/12/13 02:08:45;;;;;;;29.33;13.35;;;-1.80;65.10;;;-7.51;98.92;94488.66;5009234;28;20025;-50
2022/12/13 02:11:13;;;;;;;24.30;13.00;;;-1.80;65.40;;;-7.51;98.67;94491.25;4992014;28;20055;-44
2022/12/13 02:13:39;;;;;;;27.25;14.13;;;-1.80;65.10;;;-7.49;98.67;94475.53;4987223;28;20055;-52
2022/12/13 02:16:49;;;;;;;24.80;12.82;;;-1.80;65.10;;;-7.51;98.47;94477.50;4989984;28;20045;-49
2022/12/13 02:19:36;;;;;;;26.42;13.77;;;-1.80;65.20;;;-7.53;98.71;94466.53;4961419;28;20099;-49
2022/12/13 02:23:13;;;;;;;24.38;13.95;;;-1.80;65.10;;;-7.48;98.65;94465.03;5008497;28;20025;-49
2022/12/13 02:26:24;;;;;;;25.63;13.35;;;-1.80;65.10;;;-7.51;98.73;94451.66;5000166;28;20025;-45
2022/12/13 02:29:53;;;;;;;26.10;12.75;;;-1.80;65.20;;;-7.53;98.56;94453.59;5013847;28;20474;-44
2022/12/13 02:33:15;;;;;;;24.52;12.25;;;-1.80;65.30;;;-7.55;98.72;94461.56;5012366;28;20060;-46
2022/12/13 02:36:18;;;;;;;21.60;12.13;;;-1.90;65.20;;;-7.54;98.68;94459.75;4986046;28;20029;-45
2022/12/13 02:39:37;;;;;;;21.88;12.05;;;-1.80;65.30;;;-7.60;98.30;94453.53;4990036;28;20124;-47
2022/12/13 02:42:30;;;;;;;23.08;11.73;;;-1.90;65.20;;;-7.62;98.00;94452.88;4985814;28;20030;-45
2022/12/13 02:45:38;;;;;;;22.95;12.55;;;-1.90;65.10;;;-7.64;98.06;94459.25;4989808;28;20453;-50
2022/12/13 02:48:10;;;;;;;25.63;12.93;;;-2.00;65.10;;;-7.68;97.98;94449.25;4984382;28;20053;-46
2022/12/13 02:50:38;;;;;;;25.33;12.75;;;-2.00;65.00;;;-7.73;98.22;94446.41;4989729;28;20029;-48
2022/12/13 02:53:11;;;;;;;26.52;12.85;;;-2.00;65.00;;;-7.69;97.94;94441.66;4992511;28;20033;-49
2022/12/13 02:55:40;;;;;;;25.08;12.38;;;-2.00;65.10;;;-7.68;97.84;94448.44;4993394;28;20082;-45
2022/12/13 02:58:06;;;;;;;22.52;12.57;;;-2.00;65.00;;;-7.66;97.80;94443.91;4982634;28;20455;-48
2022/12/13 03:00:42;;;;;;;22.40;11.98;;;-2.00;65.00;;;-7.66;97.65;94453.44;4953971;28;20042;-44
2022/12/13 03:04:23;;;;;;;26.80;12.65;;;-2.00;65.10;;;-7.71;97.45;94443.63;4993584;28;20034;-45
2022/12/13 03:07:28;;;;;;;25.42;12.45;;;-2.00;65.10;;;-7.71;97.55;94449.63;4993469;28;20487;-45
2022/12/13 03:10:37;;;;;;;28.40;12.88;;;-2.00;65.10;;;-7.74;97.42;94433.63;4990611;28;20064;-46
2022/12/13 03:13:36;;;;;;;27.42;12.30;;;-2.00;65.80;;;-7.68;97.20;94427.75;5003744;28;20785;-45
2022/12/13 03:16:35;;;;;;;23.88;11.85;;;-2.00;65.10;;;-7.73;97.53;94423.13;4999876;28;20034;-46
2022/12/13 03:19:11;;;;;;;22.85;12.48;;;-2.00;65.10;;;-7.72;97.10;94423.94;4998282;28;20036;-45
2022/12/13 03:21:49;;;;;;;21.70;11.57;;;-2.00;65.00;;;-7.72;96.95;94424.72;4969879;28;20036;-46
2022/12/13 03:24:20;;;;;;;26.15;11.80;;;-2.00;65.10;;;-7.75;96.87;94424.28;4992391;28;20025;-45
2022/12/13 03:26:50;;;;;;;19.92;11.20;;;-2.00;65.10;;;-7.73;97.20;94424.91;4990751;28;20388;-47
2022/12/13 03:29:16;;;;;;;21.98;11.98;;;-2.00;65.00;;;-7.68;97.04;94430.34;4994760;28;20029;-44
2022/12/13 03:31:45;;;;;;;23.45;11.90;;;-2.00;65.00;;;-7.69;97.14;94434.72;4998533;28;20022;-45
2022/12/13 03:34:14;;;;;;;20.80;11.70;;;-2.00;65.00;;;-7.68;96.86;94420.81;4985426;28;20025;-44
2022/12/13 03:36:43;;;;;;;22.60;12.38;;;-2.00;65.00;;;-7.72;96.90;94424.72;4984342;28;20423;-45
2022/12/13 03:39:09;;;;;;;23.98;12.52;;;-2.00;65.00;;;-7.71;97.00;94418.59;4994959;28;20435;-45
2022/12/13 03:41:37;;;;;;;21.55;11.85;;;-2.00;65.00;;;-7.69;96.81;94421.78;4992050;28;20033;-44
2022/12/13 03:44:07;;;;;;;24.15;12.40;;;-2.00;65.00;;;-7.71;96.74;94412.59;5000389;28;20380;-45
2022/12/13 03:46:33;;;;;;;23.17;11.60;;;-2.00;64.90;;;-7.76;96.75;94415.72;4994658;28;20024;-45
2022/12/13 03:49:08;;;;;;;22.42;11.25;;;-2.00;64.90;;;-7.76;96.90;94415.72;4985374;28;20029;-45
2022/12/13 03:51:37;;;;;;;20.08;11.50;;;-2.00;64.90;;;-7.79;97.26;94416.09;4991321;28;20403;-45
2022/12/13 03:54:06;;;;;;;27.83;12.35;;;-2.00;64.90;;;-7.78;97.15;94417.69;4996098;28;20136;-45
2022/12/13 03:56:31;;;;;;;19.17;11.32;;;-2.00;64.90;;;-7.73;97.08;94417.16;4994752;28;20025;-44
2022/12/13 03:59:03;;;;;;;20.92;10.43;;;-2.00;64.90;;;-7.71;96.78;94412.59;4978389;28;20428;-45
2022/12/13 04:01:32;;;;;;;20.45;11.68;;;-2.00;64.90;;;-7.75;96.46;94413.94;4966197;28;20036;-44
2022/12/13 04:04:04;;;;;;;20.98;10.98;;;-2.00;64.90;;;-7.73;96.66;94412.00;4981953;28;20045;-44
2022/12/13 04:06:30;;;;;;;19.25;8.10;;;-2.00;64.90;;;-7.72;96.66;94405.81;4996616;28;20113;-45
2022/12/13 04:09:02;;;;;;;22.67;11.10;;;-2.00;64.90;;;-7.74;96.00;94403.44;4990770;28;20140;-44
2022/12/13 04:14:12;;;;;;;18.38;10.02;;;-2.10;64.80;;;-7.85;95.37;94401.28;4986109;28;20044;-44
2022/12/13 04:16:39;;;;;;;21.40;11.98;;;-2.10;64.70;;;-7.94;95.34;94400.59;4975310;28;20037;-44
2022/12/13 04:19:05;;;;;;;18.55;9.95;;;-2.10;64.70;;;-7.95;95.71;94399.00;5004516;28;20033;-47
2022/12/13 04:21:31;;;;;;;20.88;9.88;;;-2.10;64.60;;;-7.95;95.55;94395.59;4971816;28;20025;-44
2022/12/13 04:23:57;;;;;;;21.27;10.02;;;-2.20;64.60;;;-7.99;96.07;94402.09;4999221;28;20041;-46
2022/12/13 04:26:25;;;;;;;23.58;10.88;;;-2.20;64.50;;;-7.99;96.33;94391.75;4973850;28;20028;-45
2022/12/13 04:28:51;;;;;;;21.35;10.73;;;-2.20;64.60;;;-7.98;96.47;94395.97;4983586;28;20025;-44
2022/12/13 04:31:17;;;;;;;23.38;11.35;;;-2.20;64.70;;;-7.99;96.78;94404.69;4973101;28;20083;-47
2022/12/13 04:33:50;;;;;;;22.50;11.93;;;-2.20;64.70;;;-7.98;96.95;94406.31;4973125;28;20028;-45
2022/12/13 04:36:18;;;;;;;19.35;11.07;;;-2.20;64.70;;;-7.98;97.25;94409.69;4957500;28;20026;-46
2022/12/13 04:38:46;;;;;;;21.02;11.13;;;-2.20;64.80;;;-7.99;97.38;94405.50;4989789;28;20444;-44
2022/12/13 04:41:18;;;;;;;20.52;10.73;;;-2.20;64.80;;;-7.96;97.62;94404.31;4997932;28;20021;-44
2022/12/13 04:43:51;;;;;;;18.13;10.73;;;-2.20;64.80;;;-7.93;97.46;94403.97;4973571;28;20042;-45
2022/12/13 04:46:32;;;;;;;20.30;9.85;;;-2.20;64.90;;;-8.03;97.56;94399.06;4990977;28;20029;-46
2022/12/13 04:49:01;;;;;;;19.75;9.80;;;-2.30;64.80;;;-8.12;97.33;94399.34;4962062;28;20523;-46
2022/12/13 04:51:27;;;;;;;19.08;10.10;;;-2.30;64.70;;;-8.19;97.37;94388.91;4977576;28;20038;-45
2022/12/13 04:53:53;;;;;;;17.58;9.98;;;-2.30;64.70;;;-8.19;97.52;94397.47;4973822;28;20547;-45
2022/12/13 04:56:19;;;;;;;20.50;11.18;;;-2.30;64.70;;;-8.20;97.97;94400.25;4953620;28;20030;-44
2022/12/13 04:58:45;;;;;;;17.50;10.95;;;-2.40;64.60;;;-8.24;97.54;94392.06;4969739;28;20406;-46
2022/12/13 05:01:11;;;;;;;21.27;9.95;;;-2.40;64.60;;;-8.24;97.56;94392.06;4972608;28;20029;-45
2022/12/13 05:03:38;;;;;;;22.08;10.50;;;-2.40;64.60;;;-8.22;97.82;94397.03;4950529;28;20177;-51
2022/12/13 05:06:13;;;;;;;19.38;10.95;;;-2.50;64.60;;;-8.16;97.43;94401.47;4967058;28;20397;-45
2022/12/13 05:08:45;;;;;;;19.17;10.48;;;-2.50;64.70;;;-8.15;97.25;94401.31;4973565;28;20022;-45
2022/12/13 05:11:11;;;;;;;19.30;10.57;;;-2.50;64.70;;;-8.11;97.28;94398.38;4969550;28;20497;-44
2022/12/13 05:13:37;;;;;;;17.20;9.50;;;-2.50;64.80;;;-8.13;97.48;94393.38;4968353;28;20034;-47
2022/12/13 05:16:08;;;;;;;19.10;10.02;;;-2.50;64.70;;;-8.11;97.00;94396.59;4969904;28;20049;-46
2022/12/13 05:18:36;;;;;;;23.17;10.52;;;-2.50;64.80;;;-8.13;97.41;94393.38;4961611;28;20246;-44
2022/12/13 05:21:22;;;;;;;21.80;10.70;;;-2.50;64.70;;;-8.23;96.96;94398.81;4975257;28;20032;-49
2022/12/13 05:24:05;;;;;;;18.42;10.25;;;-2.50;64.70;;;-8.25;97.23;94395.59;4986783;28;20052;-45
2022/12/13 05:26:37;;;;;;;27.00;11.10;;;-2.50;64.70;;;-8.20;97.08;94397.66;4989226;28;20535;-44
2022/12/13 05:29:03;;;;;;;18.95;10.45;;;-2.50;64.70;;;-8.21;96.77;94396.03;4972794;28;20572;-45
2022/12/13 05:31:31;;;;;;;19.05;10.38;;;-2.50;64.70;;;-8.24;96.87;94393.81;4981751;28;20547;-50
2022/12/13 05:33:57;;;;;;;20.70;10.13;;;-2.50;64.60;;;-8.25;96.47;94392.22;4989446;28;20094;-51
2022/12/13 05:36:38;;;;;;;31.73;11.15;;;-2.50;64.60;;;-8.29;96.58;94391.78;4982462;28;20026;-45
2022/12/13 05:39:07;;;;;;;17.83;10.88;;;-2.50;64.60;;;-8.35;96.44;94400.22;4976291;28;20030;-45
2022/12/13 05:41:36;;;;;;;23.40;10.27;;;-2.60;64.60;;;-8.38;96.63;94392.88;4988583;28;20484;-46
2022/12/13 05:44:09;;;;;;;18.33;10.13;;;-2.60;64.60;;;-8.40;96.41;94390.47;4968649;28;20089;-48
2022/12/13 05:46:38;;;;;;;17.85;9.88;;;-2.60;64.60;;;-8.43;95.89;94384.84;4974916;28;20034;-47
2022/12/13 05:49:07;;;;;;;18.88;10.00;;;-2.60;64.60;;;-8.45;95.62;94389.38;4969622;28;20401;-48
2022/12/13 05:51:33;;;;;;;19.70;10.30;;;-2.70;64.50;;;-8.48;95.66;94376.81;4970997;28;20050;-45
2022/12/13 05:54:02;;;;;;;16.98;9.00;;;-2.70;64.50;;;-8.53;95.39;94381.72;4972037;28;20029;-45
2022/12/13 05:56:28;;;;;;;19.77;9.45;;;-2.70;64.40;;;-8.55;95.66;94383.66;4972959;28;20076;-47
2022/12/13 05:58:54;;;;;;;52.88;11.98;;;-2.80;64.40;;;-8.57;95.84;94376.09;4952731;28;20034;-45
2022/12/13 06:01:23;;;;;;;23.15;9.90;;;-2.80;64.40;;;-8.63;95.75;94379.38;4968374;28;20441;-44
2022/12/13 06:03:55;;;;;;;22.05;10.95;;;-2.80;64.50;;;-8.63;95.90;94379.38;4968778;28;20041;-45
2022/12/13 06:06:21;;;;;;;22.33;10.43;;;-2.90;64.50;;;-8.60;95.96;94386.78;4969496;28;20036;-48
2022/12/13 06:08:49;;;;;;;20.63;10.57;;;-2.80;64.60;;;-8.60;95.64;94379.03;4970450;28;20030;-46
2022/12/13 06:11:15;;;;;;;18.05;10.48;;;-2.90;64.50;;;-8.57;96.33;94370.94;4965230;28;20367;-45
2022/12/13 06:13:43;;;;;;;19.35;10.35;;;-2.90;64.60;;;-8.61;96.11;94374.84;4969004;28;20112;-45
2022/12/13 06:16:12;;;;;;;22.63;11.07;;;-2.90;64.60;;;-8.60;96.20;94371.28;4968850;28;20096;-45
2022/12/13 06:18:38;;;;;;;18.45;10.32;;;-2.90;64.80;;;-8.62;95.71;94376.66;4969317;28;20113;-49
2022/12/13 06:21:07;;;;;;;23.08;11.23;;;-2.90;64.60;;;-8.63;95.54;94374.22;4970118;28;20049;-45
2022/12/13 06:23:34;;;;;;;21.25;10.63;;;-2.90;64.60;;;-8.62;95.37;94386.97;4969815;28;20038;-46
2022/12/13 06:26:07;;;;;;;21.27;9.77;;;-2.90;64.50;;;-8.66;95.37;94385.69;4968621;28;20073;-45
2022/12/13 06:28:33;;;;;;;;;;;-2.90;64.50;;;-8.71;95.63;94384.63;4970670;28;20397;-45
2022/12/13 06:31:09;;;;;;;17.10;8.75;;;-2.90;64.50;;;-8.70;95.78;94394.78;4969461;28;19974;-46
2022/12/13 06:33:40;;;;;;;21.92;10.85;;;-2.90;64.40;;;-8.74;96.00;94398.69;4969613;28;20018;-45
2022/12/13 06:36:07;;;;;;;18.47;9.83;;;-3.00;64.40;;;-8.76;96.12;94394.69;4964930;28;20054;-48
2022/12/13 06:38:33;;;;;;;21.35;10.07;;;-3.00;64.40;;;-8.84;96.72;94398.13;4968921;28;20034;-46
2022/12/13 06:41:15;;;;;;;19.73;10.00;;;-3.00;64.50;;;-8.84;97.04;94413.59;4968791;28;20089;-44
2022/12/13 06:43:47;;;;;;;18.88;9.73;;;-3.00;64.60;;;-8.83;97.00;94402.31;4963103;28;20100;-45
2022/12/13 06:46:15;;;;;;;21.23;10.47;;;-3.00;64.60;;;-8.81;96.61;94402.13;4950511;28;20032;-46
2022/12/13 06:48:41;;;;;;;20.23;10.77;;;-3.00;64.70;;;-8.80;96.64;94390.84;4966963;28;20442;-49
2022/12/13 06:51:09;;;;;;;24.27;10.10;;;-3.10;64.70;;;-8.75;96.29;94391.13;4909490;28;24217;-47
2022/12/13 06:53:38;;;;;;;19.15;9.73;;;-3.10;64.70;;;-8.75;95.96;94393.69;4915209;29;20023;-49
2022/12/13 06:56:12;;;;;;;20.60;10.25;;;-3.10;64.70;;;-8.78;95.82;94399.22;4933566;29;20031;-44
2022/12/13 06:58:41;;;;;;;22.17;10.75;;;-3.10;64.60;;;-8.86;96.02;94387.19;4949035;29;20041;-44
2022/12/13 07:01:17;;;;;;;19.60;9.60;;;-3.00;64.70;;;-8.88;96.50;94396.88;4931097;28;20034;-45
2022/12/13 07:03:44;;;;;;;16.17;9.20;;;-3.10;64.60;;;-8.85;96.62;94388.78;4934978;28;20485;-48
2022/12/13 07:06:17;;;;;;;18.80;9.65;;;-3.10;64.60;;;-8.86;96.73;94379.44;4982041;28;20022;-45
2022/12/13 07:08:53;;;;;;;19.17;9.52;;;-3.10;64.60;;;-8.79;96.96;94371.78;4949124;28;20019;-48
2022/12/13 07:11:25;;;;;;;22.13;9.73;;;-3.10;64.70;;;-8.75;96.81;94367.88;4949827;28;20022;-45
2022/12/13 07:13:55;;;;;;;19.15;9.93;;;-3.00;64.80;;;-8.71;96.76;94379.44;4939114;28;20031;-46
2022/12/13 07:16:23;;;;;;;22.20;10.70;;;-3.00;64.70;;;-8.69;96.53;94377.50;4948059;28;20578;-45
2022/12/13 07:19:01;;;;;;;26.20;10.75;;;-2.90;64.80;;;-8.64;96.70;94380.38;4948012;28;20043;-47
2022/12/13 07:21:29;;;;;;;17.42;9.23;;;-2.90;64.70;;;-8.64;96.06;94386.34;4949657;28;20077;-49
2022/12/13 07:23:55;;;;;;;18.80;9.60;;;-2.80;64.60;;;-8.59;95.82;94390.16;4936724;28;20041;-44
2022/12/13 07:26:23;;;;;;;15.60;9.35;;;-2.70;64.60;;;-8.52;95.60;94397.03;4945681;28;20025;-49
2022/12/13 07:28:49;;;;;;;17.77;9.48;;;-2.70;64.40;;;-8.43;95.15;94403.75;4960585;28;20033;-47
2022/12/13 07:31:14;;;;;;;21.23;10.30;;;-2.60;64.40;;;-8.44;94.73;94404.69;4934990;28;20027;-45
2022/12/13 07:33:44;;;;;;;18.80;9.48;;;-2.50;64.30;;;-8.44;94.70;94414.22;4967014;28;20034;-47
2022/12/13 07:36:17;;;;;;;17.27;9.32;;;-2.40;64.10;;;-8.35;94.23;94407.19;4951891;28;20026;-46
2022/12/13 07:38:52;;;;;;;17.42;9.77;;;-2.30;64.00;;;-8.42;94.16;94412.28;4966883;28;20034;-48
2022/12/13 07:41:18;;;;;;;20.85;9.85;;;-2.30;63.80;;;-8.34;93.79;94416.53;4950286;28;20042;-46
2022/12/13 07:43:45;;;;;;;18.92;9.57;;;-2.20;63.70;;;-8.36;93.93;94410.75;4951512;28;20200;-47
2022/12/13 07:46:14;;;;;;;17.00;9.05;;;-2.10;63.50;;;-8.35;93.69;94410.56;4970407;28;20022;-45
2022/12/13 07:48:40;;;;;;;26.35;9.93;;;-2.00;63.40;;;-8.29;93.96;94415.03;4950705;28;20019;-47
2022/12/13 07:51:13;;;;;;;17.77;9.00;;;-2.00;63.30;;;-8.32;93.63;94412.00;4951821;28;20101;-46
2022/12/13 07:53:40;;;;;;;20.35;9.73;;;-1.90;63.20;;;-8.27;93.33;94414.84;4937906;28;20030;-44
2022/12/13 07:56:10;;;;;;;19.27;8.95;;;-1.80;63.10;;;-8.26;93.40;94419.03;4972548;28;20029;-48
2022/12/13 07:58:37;;;;;;;18.27;9.60;;;-1.80;62.90;;;-8.21;93.31;94414.94;4951971;28;20057;-48
2022/12/13 08:01:08;;;;;;;17.38;8.98;;;-1.70;62.80;;;-8.18;93.20;94419.75;4945109;28;20056;-45
2022/12/13 08:03:35;;;;;;;15.88;9.05;;;-1.70;62.70;;;-8.09;92.68;94424.84;4963150;28;20058;-44
2022/12/13 08:06:11;;;;;;;14.38;8.05;;;-1.60;62.60;;;-8.08;92.57;94426.41;4946977;28;20020;-48
2022/12/13 08:08:40;;;;;;;18.70;9.18;;;-1.50;62.50;;;-8.01;92.34;94422.97;4972409;28;20026;-52
2022/12/13 08:11:14;;;;;;;15.95;8.55;;;-1.40;62.30;;;-7.99;92.23;94417.59;4953679;28;20485;-52
2022/12/13 08:13:40;;;;;;;15.75;8.93;;;-1.40;62.20;;;-7.97;92.01;94426.78;4961936;28;20393;-50
2022/12/13 08:16:11;;;;;;;22.40;8.98;;;-1.30;62.10;;;-7.91;92.09;94433.03;4948381;28;20069;-51
2022/12/13 08:18:38;;;;;;;16.80;8.50;;;-1.20;62.00;;;-7.83;91.71;94429.53;4950420;28;20033;-45
2022/12/13 08:21:08;;;;;;;15.55;8.45;;;-1.10;61.90;;;-7.77;91.75;94428.81;4971442;28;20026;-46
2022/12/13 08:23:36;;;;;;;14.60;8.55;;;-1.00;61.80;;;-7.72;91.33;94437.66;4972067;28;20029;-47
2022/12/13 08:26:05;;;;;;;16.63;8.95;;;-0.90;61.70;;;-7.69;91.00;94429.53;4971741;28;20025;-48
2022/12/13 08:28:35;;;;;;;14.32;8.40;;;-0.80;61.50;;;-7.60;91.15;94432.03;4954484;28;20169;-45
2022/12/13 08:31:13;;;;;;;19.55;9.27;;;-0.60;61.30;;;-7.48;90.99;94438.34;4953591;28;20815;-45
2022/12/13 08:33:42;;;;;;;16.77;9.15;;;-0.50;61.10;;;-7.46;90.55;94437.19;4954383;28;20543;-47
2022/12/13 08:36:14;;;;;;;15.20;8.80;;;-0.40;60.90;;;-7.33;90.31;94440.88;4972269;28;20037;-45
2022/12/13 08:38:41;;;;;;;18.27;9.70;;;-0.20;60.70;;;-7.32;90.11;94439.91;4953256;28;20042;-45
2022/12/13 08:41:08;;;;;;;13.50;8.57;;;-0.20;60.50;;;-7.25;89.61;94443.38;4973128;28;20037;-48
2022/12/13 08:43:35;;;;;;;15.70;9.05;;;-0.10;60.30;;;-7.20;89.50;94445.44;4953104;28;20458;-46
2022/12/13 08:46:05;;;;;;;14.68;8.68;;;0.00;60.10;;;-7.14;89.60;94435.16;4957051;28;20045;-47
2022/12/13 08:48:32;;;;;;;13.98;8.40;;;0.10;59.90;;;-7.07;89.37;94448.94;4952515;28;20080;-53
2022/12/13 08:51:13;;;;;;;15.35;9.27;;;0.30;59.80;;;-6.98;89.02;94441.88;4953265;28;20022;-45
2022/12/13 08:53:39;;;;;;;17.45;9.70;;;0.50;59.70;;;-6.94;88.53;94455.25;4953383;28;20034;-46
2022/12/13 08:56:11;;;;;;;14.80;8.98;;;0.60;59.50;;;-6.89;88.70;94452.88;4971518;28;20018;-45
2022/12/13 08:58:39;;;;;;;12.68;7.70;;;0.80;59.30;;;-6.76;88.08;94456.44;4959263;28;20030;-51
2022/12/13 09:01:09;;;;;;;17.02;8.65;;;1.00;59.10;;;-6.64;87.89;94467.09;4949502;28;20022;-46
2022/12/13 09:03:36;;;;;;;14.70;8.25;;;1.20;58.80;;;-6.61;87.28;94471.09;4954937;28;20025;-45
2022/12/13 09:06:15;;;;;;;14.40;9.38;;;1.40;58.60;;;-6.54;86.72;94474.56;4952098;28;20476;-45
2022/12/13 09:08:44;;;;;;;13.90;8.45;;;1.50;58.20;;;-6.37;86.86;94477.69;4956797;28;20025;-46
2022/12/13 09:11:11;;;;;;;13.25;8.65;;;1.70;58.10;;;-6.41;86.22;94472.06;4901888;28;25526;-45
2022/12/13 09:13:39;;;;;;;15.20;9.35;;;1.80;57.90;;;-6.44;86.01;94469.06;4971562;28;20057;-45
2022/12/13 09:16:17;;;;;;;16.00;9.05;;;1.80;57.60;;;-6.33;85.99;94471.13;4973113;28;20028;-45
2022/12/13 09:18:44;;;;;;;14.77;8.02;;;1.90;57.30;;;-6.31;85.75;94467.38;4974288;28;20037;-50
2022/12/13 09:21:14;;;;;;;13.20;8.85;;;1.90;57.20;;;-6.36;85.71;94468.91;4972468;28;20049;-49
2022/12/13 09:23:41;;;;;;;15.90;9.25;;;2.00;57.10;;;-6.35;85.65;94470.53;4988843;28;20400;-45
2022/12/13 09:26:12;;;;;;;16.83;9.35;;;2.00;56.90;;;-6.27;85.99;94467.78;4976517;28;20103;-45
2022/12/13 09:28:40;;;;;;;13.90;8.90;;;2.10;56.80;;;-6.20;85.34;94460.09;4969099;28;20425;-45
2022/12/13 09:31:13;;;;;;;15.13;9.20;;;2.20;56.80;;;-6.20;85.24;94454.91;4969664;28;20113;-46
2022/12/13 09:33:43;;;;;;;15.70;8.73;;;2.30;56.60;;;-6.27;85.22;94462.59;4956598;28;20057;-48
2022/12/13 09:36:18;;;;;;;19.40;9.82;;;2.30;56.40;;;-6.17;85.37;94454.50;4972302;28;20388;-47
2022/12/13 09:38:46;;;;;;;17.23;7.97;;;2.40;56.10;;;-6.02;84.96;94459.59;4973238;28;20431;-45
2022/12/13 09:41:33;;;;;;;14.35;9.30;;;2.50;56.10;;;-5.91;84.31;94457.25;4972125;28;20179;-44
2022/12/13 09:44:41;;;;;;;16.02;9.57;;;2.70;56.00;;;-5.81;83.42;94465.47;4970377;28;20050;-52
2022/12/13 09:47:46;;;;;;;16.83;9.02;;;2.80;55.90;;;-5.66;83.88;94467.97;4952324;28;20038;-47
2022/12/13 09:50:37;;;;;;;15.15;9.57;;;2.90;55.80;;;-5.70;83.51;94463.34;4960132;28;20045;-44
2022/12/13 09:53:06;;;;;;;15.00;8.60;;;3.00;55.60;;;-5.73;83.39;94461.97;4969546;28;20026;-45
2022/12/13 09:55:47;;;;;;;13.93;8.55;;;3.00;55.40;;;-5.73;83.12;94461.16;4954214;28;20026;-47
2022/12/13 09:58:33;;;;;;;10.95;8.02;;;3.10;55.20;;;-5.67;83.13;94453.41;4989872;28;20060;-45
2022/12/13 10:00:59;;;;;;;14.35;8.13;;;3.20;55.00;;;-5.49;82.36;94457.28;4982077;28;20029;-46
2022/12/13 10:03:26;;;;;;;12.98;8.82;;;3.20;55.10;;;-5.57;82.34;94462.63;4974801;28;20057;-48
2022/12/13 10:06:11;;;;;;;14.95;9.23;;;3.30;55.00;;;-5.48;82.45;94456.28;4986803;28;20022;-45
2022/12/13 10:08:53;;;;;;;14.25;8.82;;;3.40;54.70;;;-5.40;82.44;94453.50;4973154;28;20388;-52
2022/12/13 10:11:21;;;;;;;13.60;8.45;;;3.60;54.60;;;-5.20;82.08;94446.63;4970737;28;20027;-45
2022/12/13 10:14:17;;;;;;;16.23;8.80;;;3.80;54.40;;;-5.27;82.17;94439.78;4979480;28;20524;-45
2022/12/13 10:16:56;;;;;;;13.48;8.40;;;4.10;54.10;;;-5.10;81.72;94438.47;4959363;28;20114;-47
2022/12/13 10:19:42;;;;;;;15.73;8.80;;;4.30;53.80;;;-5.14;80.62;94440.66;4968074;28;20042;-45
2022/12/13 10:22:15;;;;;;;11.90;7.60;;;4.40;53.50;;;-5.07;81.70;94435.47;4954389;28;20497;-47
2022/12/13 10:25:04;;;;;;;15.48;9.27;;;4.50;53.20;;;-5.07;81.56;94434.69;4986340;28;20034;-48
2022/12/13 10:27:48;;;;;;;11.95;8.10;;;4.60;52.90;;;-4.92;80.60;94430.91;4988624;28;20568;-46
2022/12/13 10:30:24;;;;;;;11.57;8.43;;;4.60;52.90;;;-4.99;80.28;94426.69;4956939;28;20022;-47
2022/12/13 10:33:04;;;;;;;12.93;7.97;;;4.60;52.80;;;-4.91;81.14;94414.31;4974452;28;20052;-47
2022/12/13 10:35:36;;;;;;;11.93;7.75;;;4.70;52.60;;;-4.72;80.85;94423.16;4987563;28;20076;-51
2022/12/13 10:38:33;;;;;;;11.27;7.53;;;4.80;52.60;;;-4.63;79.04;94422.97;4963844;28;20045;-49
2022/12/13 10:40:59;;;;;;;12.10;7.75;;;5.10;52.40;;;-4.60;79.57;94422.56;4962162;28;20890;-47